createdAt,value
2017-08-30T00:02:10.449Z,72.80
2017-08-30T00:04:38.877Z,73.20
2017-08-30T00:07:06.602Z,73.30
2017-08-30T00:09:34.195Z,73.30
2017-08-30T00:12:02.234Z,73.30
2017-08-30T00:14:29.907Z,73.90
2017-08-30T00:16:57.497Z,73.90
2017-08-30T00:19:25.097Z,73.70
2017-08-30T00:21:52.712Z,74.20
2017-08-30T00:24:43.642Z,73.90
2017-08-30T00:27:11.223Z,74.80
2017-08-30T00:29:38.823Z,74.70
2017-08-30T00:32:06.424Z,75.00
2017-08-30T00:34:34.023Z,74.70
2017-08-30T00:37:01.674Z,74.50
2017-08-30T00:39:29.251Z,74.70
2017-08-30T00:41:56.911Z,74.90
2017-08-30T00:44:24.503Z,74.80
2017-08-30T00:46:53.163Z,74.90
2017-08-30T00:49:20.766Z,75.10
2017-08-30T00:51:49.282Z,75.10
2017-08-30T00:54:16.891Z,74.90
2017-08-30T00:56:44.468Z,75.50
2017-08-30T00:59:12.055Z,75.40
2017-08-30T01:01:39.673Z,75.60
2017-08-30T01:04:07.271Z,76.50
2017-08-30T01:06:36.651Z,75.80
2017-08-30T01:09:04.265Z,75.80
2017-08-30T01:11:31.868Z,75.90
2017-08-30T01:13:59.468Z,76.10
2017-08-30T01:16:27.062Z,76.10
2017-08-30T01:18:54.662Z,76.00
2017-08-30T01:21:22.299Z,76.20
2017-08-30T01:23:49.929Z,77.00
2017-08-30T01:26:17.490Z,76.60
2017-08-30T01:28:45.090Z,76.80
2017-08-30T01:31:12.673Z,76.90
2017-08-30T01:33:40.300Z,77.20
2017-08-30T01:36:07.900Z,77.20
2017-08-30T01:38:35.474Z,77.20
2017-08-30T01:41:03.122Z,77.10
2017-08-30T01:43:31.300Z,77.00
2017-08-30T01:45:58.900Z,76.90
2017-08-30T01:48:26.502Z,76.70
2017-08-30T01:50:54.101Z,76.90
2017-08-30T01:53:21.734Z,77.10
2017-08-30T01:55:49.296Z,77.50
2017-08-30T01:58:16.901Z,77.40
2017-08-30T02:00:44.487Z,77.40
2017-08-30T02:03:12.125Z,77.10
2017-08-30T02:05:39.697Z,77.50
2017-08-30T02:08:07.452Z,77.50
2017-08-30T02:10:35.049Z,77.90
2017-08-30T02:13:02.626Z,77.70
2017-08-30T02:15:30.207Z,77.80
2017-08-30T02:17:57.809Z,78.00
2017-08-30T02:20:25.511Z,78.00
2017-08-30T02:22:53.089Z,77.90
2017-08-30T02:25:20.745Z,78.00
2017-08-30T02:27:48.318Z,78.20
2017-08-30T02:30:15.917Z,78.20
2017-08-30T02:32:43.526Z,78.10
2017-08-30T02:35:11.094Z,78.20
2017-08-30T02:37:38.696Z,78.50
2017-08-30T02:40:06.342Z,78.50
2017-08-30T02:42:33.939Z,78.40
2017-08-30T02:45:01.773Z,78.40
2017-08-30T02:47:29.366Z,78.50
2017-08-30T02:49:56.976Z,78.50
2017-08-30T02:52:24.534Z,78.80
2017-08-30T02:54:52.118Z,78.70
2017-08-30T02:57:19.675Z,78.70
2017-08-30T02:59:47.284Z,79.00
2017-08-30T03:02:14.915Z,78.80
2017-08-30T03:04:42.502Z,78.70
2017-08-30T03:07:10.185Z,78.60
2017-08-30T03:09:37.748Z,78.90
2017-08-30T03:12:05.375Z,79.20
2017-08-30T03:14:33.017Z,79.80
2017-08-30T03:17:00.637Z,80.00
2017-08-30T03:19:28.228Z,80.80
2017-08-30T03:21:55.847Z,80.20
2017-08-30T03:24:23.460Z,80.30
2017-08-30T03:26:51.086Z,80.00
2017-08-30T03:29:18.644Z,79.90
2017-08-30T03:31:46.255Z,80.00
2017-08-30T03:34:13.869Z,80.30
2017-08-30T03:36:42.406Z,80.30
2017-08-30T03:39:09.981Z,80.50
2017-08-30T03:41:37.608Z,80.50
2017-08-30T03:44:05.180Z,80.50
2017-08-30T03:46:32.800Z,80.80
2017-08-30T03:49:00.388Z,80.20
2017-08-30T03:51:27.997Z,80.40
2017-08-30T03:53:55.596Z,80.20
2017-08-30T03:56:23.166Z,80.60
2017-08-30T03:58:50.743Z,80.70
2017-08-30T04:01:18.349Z,80.90
2017-08-30T04:03:45.940Z,80.40
2017-08-30T04:06:13.598Z,80.50
2017-08-30T04:08:41.197Z,81.00
2017-08-30T04:11:08.765Z,81.10
2017-08-30T04:13:36.349Z,81.10
2017-08-30T04:16:03.942Z,81.00
2017-08-30T04:18:31.520Z,81.20
2017-08-30T04:20:59.131Z,81.20
2017-08-30T04:23:26.748Z,81.20
2017-08-30T04:25:54.347Z,81.20
2017-08-30T04:28:21.959Z,81.00
2017-08-30T04:30:49.572Z,81.00
2017-08-30T04:33:17.151Z,81.30
2017-08-30T04:35:44.746Z,81.30
2017-08-30T04:38:12.336Z,81.30
2017-08-30T04:40:39.930Z,81.20
2017-08-30T04:43:07.520Z,81.20
2017-08-30T04:45:35.102Z,81.20
2017-08-30T04:48:02.712Z,81.20
2017-08-30T04:50:30.327Z,81.60
2017-08-30T04:52:57.969Z,81.50
2017-08-30T04:55:25.578Z,81.10
2017-08-30T04:57:53.175Z,80.80
2017-08-30T05:00:20.757Z,81.10
2017-08-30T05:02:48.384Z,81.20
2017-08-30T05:05:15.953Z,80.80
2017-08-30T05:07:43.539Z,81.20
2017-08-30T05:10:11.969Z,81.10
2017-08-30T05:12:39.557Z,80.90
2017-08-30T05:15:07.175Z,81.20
2017-08-30T05:17:34.738Z,81.10
2017-08-30T05:20:02.335Z,81.30
2017-08-30T05:22:29.907Z,81.00
2017-08-30T05:24:58.095Z,80.80
2017-08-30T05:27:25.697Z,81.10
2017-08-30T05:29:54.548Z,81.00
2017-08-30T05:32:22.159Z,80.90
2017-08-30T05:34:49.735Z,81.30
2017-08-30T05:37:17.323Z,81.30
2017-08-30T05:39:44.940Z,80.50
2017-08-30T05:42:12.535Z,81.10
2017-08-30T05:44:40.150Z,81.10
2017-08-30T05:47:07.820Z,81.10
2017-08-30T05:49:35.429Z,80.50
2017-08-30T05:52:03.018Z,80.30
2017-08-30T05:54:30.622Z,79.70
2017-08-30T05:56:58.211Z,80.30
2017-08-30T05:59:25.828Z,80.50
2017-08-30T06:01:53.452Z,80.50
2017-08-30T06:04:21.026Z,80.90
2017-08-30T06:06:48.639Z,80.20
2017-08-30T06:09:16.278Z,79.90
2017-08-30T06:11:43.913Z,80.50
2017-08-30T06:14:11.467Z,80.80
2017-08-30T06:16:39.076Z,80.50
2017-08-30T06:19:06.650Z,80.00
2017-08-30T06:21:34.270Z,79.80
2017-08-30T06:24:02.110Z,79.80
2017-08-30T06:26:29.732Z,79.60
2017-08-30T06:28:57.349Z,78.50
2017-08-30T06:31:25.408Z,78.20
2017-08-30T06:33:53.012Z,77.00
2017-08-30T06:36:20.706Z,77.80
2017-08-30T06:38:48.901Z,77.00
2017-08-30T06:41:16.471Z,77.30
2017-08-30T06:43:44.050Z,75.90
2017-08-30T06:46:11.653Z,75.40
2017-08-30T06:48:39.250Z,75.10
2017-08-30T06:51:06.823Z,74.70
2017-08-30T06:53:35.395Z,74.50
2017-08-30T06:56:03.812Z,74.60
2017-08-30T06:58:31.385Z,74.70
2017-08-30T07:00:58.996Z,74.10
2017-08-30T07:03:26.621Z,72.50
2017-08-30T07:05:54.198Z,72.50
2017-08-30T07:08:21.776Z,72.50
2017-08-30T07:10:49.390Z,72.30
2017-08-30T07:13:16.993Z,72.30
2017-08-30T07:15:44.588Z,71.60
2017-08-30T07:18:12.217Z,71.60
2017-08-30T07:20:39.834Z,71.40
2017-08-30T07:23:07.426Z,70.30
2017-08-30T07:25:35.008Z,70.50
2017-08-30T07:28:02.612Z,70.00
2017-08-30T07:30:30.212Z,69.40
2017-08-30T07:32:58.292Z,69.80
2017-08-30T07:35:25.927Z,69.50
2017-08-30T07:37:53.502Z,69.50
2017-08-30T07:40:21.115Z,69.30
2017-08-30T07:42:48.739Z,70.10
2017-08-30T07:45:16.377Z,69.00
2017-08-30T07:47:43.970Z,68.60
2017-08-30T07:50:11.553Z,68.50
2017-08-30T07:52:39.162Z,67.70
2017-08-30T07:55:08.098Z,67.60
2017-08-30T07:57:35.737Z,67.50
2017-08-30T08:00:03.500Z,67.60
2017-08-30T08:02:31.757Z,66.90
2017-08-30T08:05:00.661Z,66.90
2017-08-30T08:07:28.257Z,66.00
2017-08-30T08:09:55.815Z,65.60
2017-08-30T08:12:23.411Z,66.10
2017-08-30T08:14:50.987Z,65.80
2017-08-30T08:17:19.838Z,64.80
2017-08-30T08:19:47.419Z,64.20
2017-08-30T08:22:15.014Z,64.80
2017-08-30T08:24:42.584Z,63.50
2017-08-30T08:27:10.149Z,63.60
2017-08-30T08:29:37.722Z,63.90
2017-08-30T08:32:05.310Z,63.30
2017-08-30T08:34:32.942Z,63.10
2017-08-30T08:37:00.561Z,63.30
2017-08-30T08:39:29.115Z,61.70
2017-08-30T08:41:56.710Z,61.60
2017-08-30T08:44:24.874Z,60.70
2017-08-30T08:46:52.451Z,60.20
2017-08-30T08:49:20.046Z,59.70
2017-08-30T08:51:48.362Z,59.10
2017-08-30T08:54:15.941Z,59.40
2017-08-30T08:56:43.546Z,58.60
2017-08-30T08:59:11.140Z,58.20
2017-08-30T09:01:38.728Z,57.90
2017-08-30T09:04:06.341Z,58.00
2017-08-30T09:06:33.950Z,58.00
2017-08-30T09:09:01.532Z,57.50
2017-08-30T09:11:29.127Z,57.70
2017-08-30T09:13:56.699Z,57.10
2017-08-30T09:16:24.289Z,56.90
2017-08-30T09:18:51.862Z,57.00
2017-08-30T09:21:19.483Z,56.40
2017-08-30T09:23:47.055Z,56.20
2017-08-30T09:26:14.643Z,56.10
2017-08-30T09:28:42.230Z,56.20
2017-08-30T09:31:09.826Z,55.70
2017-08-30T09:33:37.388Z,55.00
2017-08-30T09:36:04.972Z,54.80
2017-08-30T09:38:32.563Z,53.70
2017-08-30T09:41:00.155Z,53.70
2017-08-30T09:43:27.769Z,53.50
2017-08-30T09:45:55.375Z,53.90
2017-08-30T09:48:22.939Z,53.90
2017-08-30T09:50:50.540Z,53.30
2017-08-30T09:53:18.134Z,53.50
2017-08-30T09:55:45.688Z,53.10
2017-08-30T09:58:13.282Z,54.70
2017-08-30T10:00:40.872Z,53.60
2017-08-30T10:03:08.472Z,53.50
2017-08-30T10:05:36.088Z,53.90
2017-08-30T10:08:04.446Z,53.60
2017-08-30T10:10:32.564Z,53.90
2017-08-30T10:13:00.141Z,53.70
2017-08-30T10:15:29.490Z,54.10
2017-08-30T10:17:58.431Z,53.90
2017-08-30T10:20:26.248Z,53.00
2017-08-30T10:22:54.764Z,52.40
2017-08-30T10:25:22.362Z,51.70
2017-08-30T10:27:49.960Z,51.80
2017-08-30T10:30:17.580Z,51.60
2017-08-30T10:32:45.209Z,50.80
2017-08-30T10:35:12.792Z,51.40
2017-08-30T10:37:40.407Z,50.80
2017-08-30T10:40:07.983Z,49.70
2017-08-30T10:42:35.546Z,49.30
2017-08-30T10:45:04.155Z,49.20
2017-08-30T10:47:31.736Z,49.20
2017-08-30T10:49:59.347Z,48.50
2017-08-30T10:52:26.908Z,48.60
2017-08-30T10:54:54.518Z,49.20
2017-08-30T10:57:22.108Z,48.80
2017-08-30T10:59:49.694Z,49.00
2017-08-30T11:02:17.286Z,48.50
2017-08-30T11:04:44.888Z,48.80
2017-08-30T11:07:12.930Z,48.20
2017-08-30T11:09:40.498Z,49.00
2017-08-30T11:12:08.071Z,48.70
2017-08-30T11:14:36.721Z,49.00
2017-08-30T11:17:04.302Z,49.60
2017-08-30T11:19:31.938Z,50.10
2017-08-30T11:22:01.293Z,50.00
2017-08-30T11:24:28.912Z,50.40
2017-08-30T11:26:56.503Z,50.50
2017-08-30T11:29:24.090Z,50.50
2017-08-30T11:31:51.687Z,50.80
2017-08-30T11:34:19.255Z,50.90
2017-08-30T11:36:46.891Z,50.20
2017-08-30T11:39:14.452Z,50.10
2017-08-30T11:41:42.043Z,49.40
2017-08-30T11:44:09.778Z,50.10
2017-08-30T11:46:37.392Z,49.00
2017-08-30T11:49:04.970Z,48.00
2017-08-30T11:51:32.587Z,48.60
2017-08-30T11:54:01.091Z,47.80
2017-08-30T11:56:28.689Z,48.30
2017-08-30T11:58:56.316Z,48.60
2017-08-30T12:01:23.926Z,49.40
2017-08-30T12:03:51.500Z,47.70
2017-08-30T12:06:19.167Z,49.00
2017-08-30T12:08:46.772Z,47.60
2017-08-30T12:11:14.347Z,48.90
2017-08-30T12:13:41.935Z,48.40
2017-08-30T12:16:09.556Z,48.90
2017-08-30T12:18:37.151Z,49.30
2017-08-30T12:21:04.768Z,48.30
2017-08-30T12:23:32.390Z,48.10
2017-08-30T12:25:59.963Z,47.20
2017-08-30T12:28:27.561Z,47.80
2017-08-30T12:30:55.144Z,45.80
2017-08-30T12:33:22.742Z,44.30
2017-08-30T12:35:50.332Z,43.80
2017-08-30T12:38:34.736Z,43.50
2017-08-30T12:41:02.407Z,44.10
2017-08-30T12:43:30.008Z,43.10
2017-08-30T12:45:57.627Z,44.10
2017-08-30T12:48:25.196Z,42.90
2017-08-30T12:50:52.775Z,41.90
2017-08-30T12:53:20.392Z,42.30
2017-08-30T12:55:47.988Z,42.60
2017-08-30T12:58:15.570Z,43.60
2017-08-30T13:00:43.142Z,43.20
2017-08-30T13:03:10.713Z,42.30
2017-08-30T13:05:38.271Z,42.40
2017-08-30T13:08:05.864Z,41.60
2017-08-30T13:10:33.445Z,41.30
2017-08-30T13:13:01.071Z,41.70
2017-08-30T13:15:28.730Z,42.70
2017-08-30T13:17:57.768Z,42.00
2017-08-30T13:20:25.345Z,43.10
2017-08-30T13:22:52.939Z,44.00
2017-08-30T13:25:20.540Z,44.30
2017-08-30T13:27:48.107Z,45.10
2017-08-30T13:30:15.688Z,46.40
2017-08-30T13:32:43.340Z,46.50
2017-08-30T13:35:10.941Z,46.20
2017-08-30T13:37:38.541Z,46.50
2017-08-30T13:40:06.201Z,45.70
2017-08-30T13:42:33.917Z,45.30
2017-08-30T13:45:01.535Z,45.60
2017-08-30T13:47:29.119Z,44.80
2017-08-30T13:49:56.762Z,44.60
2017-08-30T13:52:24.405Z,43.70
2017-08-30T13:54:52.009Z,43.50
2017-08-30T13:57:19.887Z,43.10
2017-08-30T13:59:47.487Z,43.00
2017-08-30T14:02:15.116Z,43.20
2017-08-30T14:04:42.722Z,43.30
2017-08-30T14:07:11.196Z,44.00
2017-08-30T14:09:38.813Z,44.40
2017-08-30T14:12:12.249Z,44.70
2017-08-30T14:14:39.836Z,43.90
2017-08-30T14:17:07.412Z,43.70
2017-08-30T14:19:35.049Z,44.00
2017-08-30T14:22:02.634Z,43.20
2017-08-30T14:24:30.275Z,43.80
2017-08-30T14:26:57.867Z,41.10
2017-08-30T14:29:25.480Z,41.70
2017-08-30T14:31:53.059Z,43.10
2017-08-30T14:34:20.652Z,43.00
2017-08-30T14:36:48.265Z,43.70
2017-08-30T14:39:15.888Z,43.40
2017-08-30T14:41:43.703Z,43.60
2017-08-30T14:44:11.305Z,43.00
2017-08-30T14:46:38.921Z,43.80
2017-08-30T14:49:06.521Z,42.80
2017-08-30T14:51:34.135Z,42.70
2017-08-30T14:54:01.725Z,42.00
2017-08-30T14:56:29.291Z,41.70
2017-08-30T14:58:56.894Z,42.80
2017-08-30T15:01:24.484Z,43.00
2017-08-30T15:03:53.120Z,43.00
2017-08-30T15:06:20.842Z,43.10
2017-08-30T15:08:48.868Z,43.10
2017-08-30T15:11:16.556Z,43.70
2017-08-30T15:13:44.206Z,44.30
2017-08-30T15:16:12.155Z,44.90
2017-08-30T15:18:39.797Z,45.90
2017-08-30T15:21:07.379Z,48.60
2017-08-30T15:23:34.980Z,49.50
2017-08-30T15:26:02.580Z,49.80
2017-08-30T15:28:30.168Z,50.60
2017-08-30T15:30:58.335Z,50.90
2017-08-30T15:33:25.957Z,49.50
2017-08-30T15:35:53.541Z,49.50
2017-08-30T15:38:21.191Z,50.20
2017-08-30T15:40:48.776Z,50.20
2017-08-30T15:43:16.362Z,50.60
2017-08-30T15:45:43.998Z,51.00
2017-08-30T15:48:11.588Z,51.10
2017-08-30T15:50:39.212Z,52.00
2017-08-30T15:53:06.835Z,51.60
2017-08-30T15:55:34.436Z,51.90
2017-08-30T15:58:02.028Z,52.30
2017-08-30T16:00:29.621Z,52.70
2017-08-30T16:02:57.211Z,52.80
2017-08-30T16:05:24.845Z,53.20
2017-08-30T16:07:52.979Z,53.10
2017-08-30T16:10:22.459Z,52.20
2017-08-30T16:12:50.055Z,53.10
2017-08-30T16:15:17.659Z,53.20
2017-08-30T16:17:45.235Z,53.80
2017-08-30T16:20:13.681Z,54.20
2017-08-30T16:22:41.281Z,54.10
2017-08-30T16:25:08.849Z,54.20
2017-08-30T16:27:36.458Z,54.90
2017-08-30T16:30:04.059Z,55.50
2017-08-30T16:32:31.663Z,55.70
2017-08-30T16:34:59.229Z,55.40
2017-08-30T16:37:26.858Z,55.80
2017-08-30T16:39:54.447Z,56.10
2017-08-30T16:42:22.064Z,56.00
2017-08-30T16:44:49.654Z,56.30
2017-08-30T16:47:17.235Z,56.50
2017-08-30T16:49:44.842Z,56.70
2017-08-30T16:52:12.414Z,56.90
2017-08-30T16:54:40.043Z,57.00
2017-08-30T16:57:08.420Z,57.50
2017-08-30T16:59:36.029Z,57.50
2017-08-30T17:02:03.682Z,57.40
2017-08-30T17:04:31.297Z,58.00
2017-08-30T17:06:58.902Z,58.00
2017-08-30T17:09:26.476Z,58.10
2017-08-30T17:11:54.119Z,58.30
2017-08-30T17:14:21.687Z,58.30
2017-08-30T17:16:49.274Z,58.20
2017-08-30T17:19:16.841Z,58.90
2017-08-30T17:21:44.436Z,58.30
2017-08-30T17:24:12.012Z,58.50
2017-08-30T17:26:39.588Z,57.90
2017-08-30T17:29:07.214Z,58.10
2017-08-30T17:31:34.791Z,58.30
2017-08-30T17:34:03.051Z,58.20
2017-08-30T17:36:30.653Z,58.30
2017-08-30T17:38:58.264Z,58.40
2017-08-30T17:41:25.857Z,58.20
2017-08-30T17:43:53.491Z,58.60
2017-08-30T17:46:21.110Z,58.20
2017-08-30T17:48:48.716Z,58.10
2017-08-30T17:51:16.304Z,57.40
2017-08-30T17:53:43.983Z,57.00
2017-08-30T17:56:11.638Z,56.10
2017-08-30T17:58:39.259Z,55.90
2017-08-30T18:01:06.888Z,56.60
2017-08-30T18:03:34.499Z,57.00
2017-08-30T18:06:02.101Z,57.50
2017-08-30T18:08:29.748Z,57.20
2017-08-30T18:10:57.386Z,56.80
2017-08-30T18:13:25.019Z,56.50
2017-08-30T18:15:52.613Z,56.90
2017-08-30T18:18:20.248Z,57.20
2017-08-30T18:20:48.189Z,56.40
2017-08-30T18:23:15.831Z,56.10
2017-08-30T18:25:43.412Z,55.90
2017-08-30T18:28:11.016Z,55.20
2017-08-30T18:30:38.656Z,55.70
2017-08-30T18:33:06.273Z,55.50
2017-08-30T18:35:33.859Z,54.60
2017-08-30T18:38:01.430Z,54.70
2017-08-30T18:40:29.061Z,54.50
2017-08-30T18:42:56.631Z,54.70
2017-08-30T18:45:24.222Z,54.50
2017-08-30T18:47:51.832Z,54.60
2017-08-30T18:50:19.460Z,54.60
2017-08-30T18:52:47.131Z,54.70
2017-08-30T18:55:14.746Z,54.80
2017-08-30T18:57:42.339Z,55.40
2017-08-30T19:00:09.969Z,54.60
2017-08-30T19:02:37.566Z,54.50
2017-08-30T19:05:05.195Z,54.70
2017-08-30T19:07:32.792Z,55.00
2017-08-30T19:10:01.161Z,55.20
2017-08-30T19:12:28.760Z,56.40
2017-08-30T19:14:56.405Z,57.50
2017-08-30T19:17:24.006Z,58.90
2017-08-30T19:19:51.637Z,59.90
2017-08-30T19:22:19.231Z,59.80
2017-08-30T19:24:46.810Z,59.70
2017-08-30T19:27:15.395Z,59.90
2017-08-30T19:29:43.950Z,62.50
2017-08-30T19:32:11.589Z,65.00
2017-08-30T19:34:39.198Z,64.50
2017-08-30T19:37:06.815Z,64.80
2017-08-30T19:39:34.423Z,65.20
2017-08-30T19:42:02.051Z,67.10
2017-08-30T19:44:29.619Z,67.20
2017-08-30T19:46:58.049Z,68.30
2017-08-30T19:49:25.615Z,69.60
2017-08-30T19:51:53.214Z,70.60
2017-08-30T19:54:20.806Z,70.30
2017-08-30T19:56:48.400Z,70.40
2017-08-30T19:59:15.995Z,72.10
2017-08-30T20:01:43.669Z,72.50
2017-08-30T20:04:11.292Z,73.30
2017-08-30T20:06:38.843Z,73.30
2017-08-30T20:09:06.412Z,73.80
2017-08-30T20:11:34.006Z,74.20
2017-08-30T20:14:01.575Z,74.60
2017-08-30T20:16:29.828Z,73.90
2017-08-30T20:18:57.444Z,73.60
2017-08-30T20:21:25.282Z,73.80
2017-08-30T20:23:52.879Z,73.80
2017-08-30T20:26:20.488Z,74.70
2017-08-30T20:28:48.439Z,75.00
2017-08-30T20:31:16.015Z,75.80
2017-08-30T20:33:43.630Z,76.50
2017-08-30T20:36:11.247Z,78.30
2017-08-30T20:38:38.850Z,78.80
2017-08-30T20:41:06.434Z,78.60
2017-08-30T20:43:35.887Z,79.30
2017-08-30T20:46:03.498Z,79.50
2017-08-30T20:48:31.059Z,79.90
2017-08-30T20:50:58.621Z,80.70
2017-08-30T20:53:26.211Z,80.40
2017-08-30T20:55:54.581Z,80.10
2017-08-30T20:58:22.154Z,80.50
2017-08-30T21:00:49.739Z,80.70
2017-08-30T21:03:17.313Z,80.30
2017-08-30T21:05:44.894Z,80.30
2017-08-30T21:08:12.484Z,80.70
2017-08-30T21:10:40.072Z,81.30
2017-08-30T21:13:07.678Z,82.20
2017-08-30T21:15:35.254Z,82.90
2017-08-30T21:18:03.550Z,83.90
2017-08-30T21:20:31.127Z,85.00
2017-08-30T21:22:58.711Z,85.70
2017-08-30T21:25:26.294Z,86.50
2017-08-30T21:27:53.859Z,86.60
2017-08-30T21:30:21.483Z,87.10
2017-08-30T21:32:49.043Z,86.90
2017-08-30T21:35:16.638Z,86.30
2017-08-30T21:37:44.260Z,86.50
2017-08-30T21:40:11.829Z,86.40
2017-08-30T21:42:39.425Z,86.50
2017-08-30T21:45:07.036Z,86.50
2017-08-30T21:47:34.644Z,86.70
2017-08-30T21:50:02.274Z,86.40
2017-08-30T21:52:29.903Z,86.20
2017-08-30T21:54:57.535Z,85.90
2017-08-30T21:57:25.129Z,85.90
2017-08-30T21:59:52.682Z,86.40
2017-08-30T22:02:20.299Z,86.10
2017-08-30T22:04:47.940Z,85.60
2017-08-30T22:07:15.538Z,86.10
2017-08-30T22:09:43.104Z,86.70
2017-08-30T22:12:10.683Z,86.20
2017-08-30T22:14:39.185Z,87.40
2017-08-30T22:17:06.762Z,85.90
2017-08-30T22:19:34.376Z,86.30
2017-08-30T22:22:01.970Z,86.00
2017-08-30T22:24:29.547Z,86.00
2017-08-30T22:26:57.104Z,86.30
2017-08-30T22:29:24.726Z,86.10
2017-08-30T22:31:52.307Z,86.10
2017-08-30T22:34:19.913Z,86.00
2017-08-30T22:36:48.146Z,85.60
2017-08-30T22:39:15.724Z,85.20
2017-08-30T22:41:43.311Z,86.50
2017-08-30T22:44:10.899Z,85.20
2017-08-30T22:46:38.488Z,84.60
2017-08-30T22:49:06.079Z,85.10
2017-08-30T22:51:33.675Z,85.30
2017-08-30T22:54:02.370Z,85.00
2017-08-30T22:56:29.921Z,84.00
2017-08-30T22:58:58.403Z,84.10
2017-08-30T23:01:25.949Z,84.20
2017-08-30T23:03:54.519Z,83.80
2017-08-30T23:06:22.121Z,83.60
2017-08-30T23:08:49.701Z,83.50
2017-08-30T23:11:17.295Z,83.70
2017-08-30T23:13:44.896Z,83.80
2017-08-30T23:16:12.461Z,83.30
2017-08-30T23:18:40.047Z,83.60
2017-08-30T23:21:07.650Z,84.00
2017-08-30T23:23:35.221Z,83.90
2017-08-30T23:26:02.840Z,83.80
2017-08-30T23:28:30.397Z,84.00
2017-08-30T23:30:57.998Z,84.10
2017-08-30T23:33:26.437Z,84.10
2017-08-30T23:35:54.055Z,85.00
2017-08-30T23:38:21.635Z,83.50
2017-08-30T23:40:49.211Z,83.50
2017-08-30T23:43:16.804Z,83.50
2017-08-30T23:45:44.357Z,83.40
2017-08-30T23:48:11.966Z,83.50
2017-08-30T23:50:39.522Z,83.50
2017-08-30T23:53:07.129Z,83.80
2017-08-30T23:55:34.708Z,84.30
2017-08-30T23:58:02.284Z,84.40
